Terminal Aerodrome Forecast
Issued by NWS

Home | Current Version | Previous Version | Text Only | Print | Product List | Glossary On
Versions: 1 2 3 4 5 6 7 8 9 10 11 12 13 14 15 16
858
FTUS46 KSGX 251747
TAFCRQ
TAF
KCRQ 251747Z 2518/2618 24008KT P6SM OVC030
     FM252200 24010KT P6SM OVC035
     FM260300 22006KT P6SM OVC025
     FM260600 22006KT P6SM -DZ OVC030
     FM260900 22006KT P6SM -DZ OVC035=

USA.gov is the U.S. government's official web portal to all federal, state and local government web resources and services.